This is the latest recevied weather packets stored in our database for station/object JE4YKI-13. If no packets are shown the sender has not sent any weather packets the latest 10 day(s).
| Time | Temp. | Humidity | Pressure | Rain* | Wind** | Luminosity | Snow |
|---|---|---|---|---|---|---|---|
| 1777356154 | 24.44° C | 45% | 1009.3 hPa | 0 mm | - | - | - |
| 1777355553 | 24.44° C | 45% | 1009.5 hPa | 0 mm | - | - | - |
| 1777354952 | 24.44° C | 45% | 1009.6 hPa | 0 mm | - | - | - |
| 1777354352 | 24.44° C | 46% | 1009.7 hPa | 0 mm | - | - | - |
| 1777353751 | 24.44° C | 45% | 1009.7 hPa | 0 mm | - | - | - |
| 1777352551 | 24.44° C | 46% | 1009.8 hPa | 0 mm | - | - | - |
| 1777351951 | 23.33° C | 47% | 1010 hPa | 0 mm | - | - | - |
| 1777351350 | 23.33° C | 47% | 1010.2 hPa | 0 mm | - | - | - |
| 1777350750 | 23.89° C | 46% | 1010.2 hPa | 0 mm | - | - | - |
| 1777350149 | 23.89° C | 45% | 1010.2 hPa | 0 mm | - | - | - |
| 1777349549 | 23.89° C | 45% | 1010.4 hPa | 0 mm | - | - | - |
| 1777348948 | 24.44° C | 45% | 1010.6 hPa | 0 mm | - | - | - |
| 1777348349 | 23.89° C | 48% | 1010.7 hPa | 0 mm | - | - | - |
| 1777347748 | 23.89° C | 51% | 1010.8 hPa | 0 mm | - | - | - |
| 1777347148 | 23.33° C | 52% | 1010.9 hPa | 0 mm | - | - | - |
| 1777346548 | 22.78° C | 53% | 1011 hPa | 0 mm | - | - | - |
| 1777345947 | 22.78° C | 57% | 1011.1 hPa | 0 mm | - | - | - |
| 1777345346 | 21.67° C | 61% | 1011.2 hPa | 0 mm | - | - | - |
| 1777344746 | 21.67° C | 64% | 1011.4 hPa | 0 mm | - | - | - |
| 1777344146 | 21.11° C | 66% | 1011.5 hPa | 0 mm | - | - | - |
| 1777343546 | 21.11° C | 66% | 1011.5 hPa | 0 mm | - | - | - |
| 1777342945 | 21.11° C | 66% | 1011.6 hPa | 0 mm | - | - | - |
| 1777342345 | 21.11° C | 66% | 1011.6 hPa | 0 mm | - | - | - |
| 1777341744 | 21.67° C | 65% | 1011.6 hPa | 0 mm | - | - | - |
| 1777341144 | 21.11° C | 66% | 1011.7 hPa | 0 mm | - | - | - |
* Rain latest hour (hover to see other rain measurements)
** Current wind speed in m/s (hover to see current wind gust speed)